createdAt,value
2019-01-12T00:00:48.982Z,0.00
2019-01-12T00:01:48.839Z,0.00
2019-01-12T00:02:48.805Z,0.00
2019-01-12T00:03:48.760Z,0.00
2019-01-12T00:04:48.722Z,0.00
2019-01-12T00:05:48.667Z,0.00
2019-01-12T00:06:48.640Z,0.00
2019-01-12T00:07:48.582Z,0.00
2019-01-12T00:08:49.445Z,0.00
2019-01-12T00:09:48.476Z,0.00
2019-01-12T00:10:50.058Z,0.00
2019-01-12T00:11:48.395Z,0.00
2019-01-12T00:12:48.371Z,0.00
2019-01-12T00:13:48.293Z,0.00
2019-01-12T00:14:48.251Z,0.00
2019-01-12T00:15:48.208Z,0.00
2019-01-12T00:16:48.203Z,0.00
2019-01-12T00:17:48.111Z,0.00
2019-01-12T00:18:48.143Z,0.00
2019-01-12T00:19:48.024Z,0.00
2019-01-12T00:20:48.011Z,0.00
2019-01-12T00:21:47.933Z,0.00
2019-01-12T00:22:48.006Z,0.00
2019-01-12T00:23:47.872Z,0.00
2019-01-12T00:24:47.811Z,0.00
2019-01-12T00:25:47.788Z,0.00
2019-01-12T00:26:47.747Z,0.00
2019-01-12T00:27:47.688Z,0.00
2019-01-12T00:28:47.629Z,0.00
2019-01-12T00:29:47.580Z,0.00
2019-01-12T00:30:47.520Z,0.00
2019-01-12T00:31:47.489Z,0.00
2019-01-12T00:32:47.428Z,0.00
2019-01-12T00:33:47.391Z,0.00
2019-01-12T00:34:47.357Z,0.00
2019-01-12T00:35:47.287Z,0.00
2019-01-12T00:36:47.267Z,0.00
2019-01-12T00:37:47.198Z,0.00
2019-01-12T00:38:47.168Z,0.00
2019-01-12T00:39:47.111Z,0.00
2019-01-12T00:40:47.088Z,0.00
2019-01-12T00:41:47.024Z,0.00
2019-01-12T00:42:46.997Z,0.00
2019-01-12T00:43:46.934Z,0.00
2019-01-12T00:44:46.912Z,0.00
2019-01-12T00:45:46.906Z,0.00
2019-01-12T00:46:46.792Z,0.00
2019-01-12T00:47:46.893Z,0.00
2019-01-12T00:48:46.712Z,0.00
2019-01-12T00:49:46.659Z,0.00
2019-01-12T00:50:46.611Z,0.00
2019-01-12T00:51:46.570Z,0.00
2019-01-12T00:52:46.522Z,0.00
2019-01-12T00:53:46.477Z,0.00
2019-01-12T00:54:46.446Z,0.00
2019-01-12T00:55:46.459Z,0.00
2019-01-12T00:56:46.366Z,0.00
2019-01-12T00:57:46.298Z,0.00
2019-01-12T00:58:46.273Z,0.00
2019-01-12T00:59:46.263Z,0.00
2019-01-12T01:00:46.169Z,0.00
2019-01-12T01:01:46.122Z,0.00
2019-01-12T01:02:46.093Z,0.00
2019-01-12T01:03:46.052Z,0.00
2019-01-12T01:04:45.984Z,0.00
2019-01-12T01:05:45.993Z,0.00
2019-01-12T01:06:45.884Z,0.00
2019-01-12T01:07:45.847Z,0.00
2019-01-12T01:08:45.796Z,0.00
2019-01-12T01:09:45.848Z,0.00
2019-01-12T01:10:45.758Z,0.00
2019-01-12T01:11:45.702Z,0.00
2019-01-12T01:12:45.618Z,0.00
2019-01-12T01:13:45.632Z,0.00
2019-01-12T01:14:45.526Z,0.00
2019-01-12T01:15:45.502Z,0.00
2019-01-12T01:16:45.445Z,0.00
2019-01-12T01:17:45.400Z,0.00
2019-01-12T01:18:45.369Z,0.00
2019-01-12T01:19:45.318Z,0.00
2019-01-12T01:20:45.271Z,0.00
2019-01-12T01:21:45.231Z,0.00
2019-01-12T01:22:45.166Z,0.00
2019-01-12T01:23:45.113Z,0.00
2019-01-12T01:24:45.998Z,0.00
2019-01-12T01:25:45.021Z,0.00
2019-01-12T01:26:44.975Z,0.00
2019-01-12T01:27:44.973Z,0.00
2019-01-12T01:28:44.901Z,0.00
2019-01-12T01:29:44.848Z,0.00
2019-01-12T01:30:44.792Z,0.00
2019-01-12T01:31:44.753Z,0.00
2019-01-12T01:32:44.712Z,0.00
2019-01-12T01:33:44.695Z,0.00
2019-01-12T01:34:44.681Z,0.00
2019-01-12T01:35:44.598Z,0.00
2019-01-12T01:36:44.541Z,0.00
2019-01-12T01:37:44.531Z,0.00
2019-01-12T01:38:44.435Z,0.00
2019-01-12T01:39:44.421Z,0.00
2019-01-12T01:40:44.354Z,0.00
2019-01-12T01:41:44.315Z,0.00
2019-01-12T01:42:44.268Z,0.00
2019-01-12T01:43:44.214Z,0.00
2019-01-12T01:44:44.199Z,0.00
2019-01-12T01:45:44.137Z,0.00
2019-01-12T01:46:44.131Z,0.00
2019-01-12T01:47:44.065Z,0.00
2019-01-12T01:48:44.026Z,0.00
2019-01-12T01:49:43.954Z,0.00
2019-01-12T01:50:43.910Z,0.00
2019-01-12T01:51:43.892Z,0.00
2019-01-12T01:52:43.807Z,0.00
2019-01-12T01:53:43.793Z,0.00
2019-01-12T01:54:43.732Z,0.00
2019-01-12T01:55:43.675Z,0.00
2019-01-12T01:56:43.632Z,0.00
2019-01-12T01:57:43.598Z,0.00
2019-01-12T01:58:43.534Z,0.00
2019-01-12T01:59:43.508Z,0.00
2019-01-12T02:00:43.443Z,0.00
2019-01-12T02:01:43.453Z,0.00
2019-01-12T02:02:43.350Z,0.00
2019-01-12T02:03:43.305Z,0.00
2019-01-12T02:04:43.267Z,0.00
2019-01-12T02:05:43.216Z,0.00
2019-01-12T02:06:43.350Z,0.00
2019-01-12T02:07:43.125Z,0.00
2019-01-12T02:08:43.082Z,0.00
2019-01-12T02:09:43.041Z,0.00
2019-01-12T02:10:43.035Z,0.00
2019-01-12T02:11:42.966Z,0.00
2019-01-12T02:12:42.930Z,0.00
2019-01-12T02:13:42.922Z,0.00
2019-01-12T02:14:42.826Z,0.00
2019-01-12T02:15:42.756Z,0.00
2019-01-12T02:16:42.735Z,0.00
2019-01-12T02:17:42.669Z,0.00
2019-01-12T02:18:42.666Z,0.00
2019-01-12T02:19:42.583Z,0.00
2019-01-12T02:20:42.573Z,0.00
2019-01-12T02:21:42.488Z,0.00
2019-01-12T02:22:42.464Z,0.00
2019-01-12T02:23:42.436Z,0.00
2019-01-12T02:24:42.366Z,0.00
2019-01-12T02:25:42.305Z,0.00
2019-01-12T02:26:42.281Z,0.00
2019-01-12T02:27:42.217Z,0.00
2019-01-12T02:28:42.192Z,0.00
2019-01-12T02:29:42.159Z,0.00
2019-01-12T02:30:42.115Z,0.00
2019-01-12T02:31:51.446Z,0.00
2019-01-12T02:33:35.645Z,0.00
2019-01-12T02:34:35.542Z,0.00
2019-01-12T02:36:29.607Z,0.00
2019-01-12T02:37:28.310Z,0.00
2019-01-12T02:39:21.352Z,0.00
2019-01-12T02:40:22.257Z,0.00
2019-01-12T02:42:15.598Z,0.00
2019-01-12T02:43:14.095Z,0.00
2019-01-12T02:45:07.948Z,0.00
2019-01-12T02:46:07.061Z,0.00
2019-01-12T02:48:00.897Z,0.00
2019-01-12T02:49:00.180Z,0.00
2019-01-12T02:50:53.335Z,0.00
2019-01-12T02:51:52.872Z,0.00
2019-01-12T02:53:46.811Z,0.00
2019-01-12T02:54:45.878Z,0.00
2019-01-12T02:56:40.286Z,0.00
2019-01-12T02:57:39.701Z,0.00
2019-01-12T02:59:33.297Z,0.00
2019-01-12T03:00:31.841Z,0.00
2019-01-12T03:02:27.245Z,0.00
2019-01-12T03:03:26.641Z,0.00
2019-01-12T03:05:20.195Z,0.00
2019-01-12T03:06:20.403Z,0.00
2019-01-12T03:08:13.131Z,0.00
2019-01-12T03:09:12.278Z,0.00
2019-01-12T03:11:05.575Z,0.00
2019-01-12T03:12:06.285Z,0.00
2019-01-12T03:13:59.581Z,0.00
2019-01-12T03:14:59.473Z,0.00
2019-01-12T03:15:58.379Z,0.00
2019-01-12T03:16:58.863Z,0.00
2019-01-12T03:17:59.238Z,0.00
2019-01-12T03:18:58.788Z,0.00
2019-01-12T03:19:57.830Z,0.00
2019-01-12T03:20:57.753Z,0.00
2019-01-12T03:21:57.689Z,0.00
2019-01-12T03:22:58.768Z,0.00
2019-01-12T03:23:58.000Z,0.00
2019-01-12T03:24:57.495Z,0.00
2019-01-12T03:25:57.546Z,0.00
2019-01-12T03:26:57.431Z,0.00
2019-01-12T03:27:57.349Z,0.00
2019-01-12T03:28:57.314Z,0.00
2019-01-12T03:29:57.370Z,0.00
2019-01-12T03:30:57.303Z,0.00
2019-01-12T03:31:57.793Z,0.00
2019-01-12T03:32:57.177Z,0.00
2019-01-12T03:33:57.092Z,0.00
2019-01-12T03:34:57.076Z,0.00
2019-01-12T03:35:57.003Z,0.00
2019-01-12T03:36:57.009Z,0.00
2019-01-12T03:37:56.888Z,0.00
2019-01-12T03:38:56.908Z,0.00
2019-01-12T03:39:56.818Z,0.00
2019-01-12T03:40:58.403Z,0.00
2019-01-12T03:41:56.736Z,0.00
2019-01-12T03:42:56.685Z,0.00
2019-01-12T03:43:56.630Z,0.00
2019-01-12T03:44:56.613Z,0.00
2019-01-12T03:45:56.530Z,0.00
2019-01-12T03:46:56.515Z,0.00
2019-01-12T03:47:56.477Z,0.00
2019-01-12T03:48:56.439Z,0.00
2019-01-12T03:49:56.364Z,0.00
2019-01-12T03:50:56.325Z,0.00
2019-01-12T03:51:56.274Z,0.00
2019-01-12T03:52:56.232Z,0.00
2019-01-12T03:53:56.181Z,0.00
2019-01-12T03:54:56.138Z,0.00
2019-01-12T03:55:56.109Z,0.00
2019-01-12T03:56:56.044Z,0.00
2019-01-12T03:57:56.014Z,0.00
2019-01-12T03:58:55.943Z,0.00
2019-01-12T03:59:55.900Z,0.00
2019-01-12T04:00:55.842Z,0.00
2019-01-12T04:01:55.833Z,0.00
2019-01-12T04:02:55.759Z,0.00
2019-01-12T04:03:55.732Z,0.00
2019-01-12T04:04:55.671Z,0.00
2019-01-12T04:05:55.642Z,0.00
2019-01-12T04:06:55.573Z,0.00
2019-01-12T04:07:55.532Z,0.00
2019-01-12T04:08:55.516Z,0.00
2019-01-12T04:09:55.444Z,0.00
2019-01-12T04:10:55.420Z,0.00
2019-01-12T04:11:55.397Z,0.00
2019-01-12T04:12:55.335Z,0.00
2019-01-12T04:13:55.277Z,0.00
2019-01-12T04:14:55.223Z,0.00
2019-01-12T04:15:55.183Z,0.00
2019-01-12T04:16:55.140Z,0.00
2019-01-12T04:17:55.111Z,0.00
2019-01-12T04:18:55.030Z,0.00
2019-01-12T04:19:55.010Z,0.00
2019-01-12T04:20:54.968Z,0.00
2019-01-12T04:21:54.939Z,0.00
2019-01-12T04:22:54.874Z,0.00
2019-01-12T04:23:54.819Z,0.00
2019-01-12T04:24:54.767Z,0.00
2019-01-12T04:25:54.747Z,0.00
2019-01-12T04:26:54.687Z,0.00
2019-01-12T04:27:54.675Z,0.00
2019-01-12T04:28:54.591Z,0.00
2019-01-12T04:29:54.549Z,0.00
2019-01-12T04:30:54.510Z,0.00
2019-01-12T04:31:54.458Z,0.00
2019-01-12T04:32:54.404Z,0.00
2019-01-12T04:33:54.377Z,0.00
2019-01-12T04:34:54.439Z,0.00
2019-01-12T04:35:54.284Z,0.00
2019-01-12T04:36:54.273Z,0.00
2019-01-12T04:37:54.186Z,0.00
2019-01-12T04:38:54.138Z,0.00
2019-01-12T04:39:54.103Z,0.00
2019-01-12T04:40:54.062Z,0.00
2019-01-12T04:41:53.997Z,0.00
2019-01-12T04:42:54.027Z,0.00
2019-01-12T04:43:53.905Z,0.00
2019-01-12T04:44:53.881Z,0.00
2019-01-12T04:45:53.815Z,0.00
2019-01-12T04:46:53.760Z,0.00
2019-01-12T04:47:53.727Z,0.00
2019-01-12T04:48:53.678Z,0.00
2019-01-12T04:49:53.618Z,0.00
2019-01-12T04:50:53.588Z,0.00
2019-01-12T04:51:53.540Z,0.00
2019-01-12T04:52:53.537Z,0.00
2019-01-12T04:53:53.457Z,0.00
2019-01-12T04:54:53.428Z,0.00
2019-01-12T04:55:53.390Z,0.00
2019-01-12T04:56:53.338Z,0.00
2019-01-12T04:57:53.267Z,0.00
2019-01-12T04:58:53.220Z,0.00
2019-01-12T04:59:53.170Z,0.00
2019-01-12T05:00:53.171Z,0.00
2019-01-12T05:01:53.086Z,0.00
2019-01-12T05:02:53.090Z,0.00
2019-01-12T05:03:52.993Z,0.00
2019-01-12T05:04:53.007Z,0.00
2019-01-12T05:05:52.913Z,0.00
2019-01-12T05:06:52.889Z,0.00
2019-01-12T05:07:52.835Z,0.00
2019-01-12T05:08:52.766Z,0.00
2019-01-12T05:09:52.737Z,0.00
2019-01-12T05:10:52.710Z,0.00
2019-01-12T05:11:52.682Z,0.00
2019-01-12T05:12:52.617Z,0.00
2019-01-12T05:13:52.572Z,0.00
2019-01-12T05:14:52.527Z,0.00
2019-01-12T05:15:52.470Z,0.00
2019-01-12T05:16:52.457Z,0.00
2019-01-12T05:17:52.521Z,0.00
2019-01-12T05:18:52.310Z,0.00
2019-01-12T05:19:53.907Z,0.00
2019-01-12T05:20:52.240Z,0.00
2019-01-12T05:21:52.343Z,0.00
2019-01-12T05:22:52.128Z,0.00
2019-01-12T05:23:52.150Z,0.00
2019-01-12T05:24:52.035Z,0.00
2019-01-12T05:25:51.999Z,0.00
2019-01-12T05:26:51.956Z,0.00
2019-01-12T05:27:52.027Z,0.00
2019-01-12T05:28:51.874Z,0.00
2019-01-12T05:29:51.823Z,0.00
2019-01-12T05:30:51.802Z,0.00
2019-01-12T05:31:51.716Z,0.00
2019-01-12T05:32:51.705Z,0.00
2019-01-12T05:33:51.656Z,0.00
2019-01-12T05:34:51.602Z,0.00
2019-01-12T05:35:51.544Z,0.00
2019-01-12T05:36:51.495Z,0.00
2019-01-12T05:37:51.453Z,0.00
2019-01-12T05:38:51.407Z,0.00
2019-01-12T05:39:51.391Z,0.00
2019-01-12T05:40:51.328Z,0.00
2019-01-12T05:41:51.270Z,0.00
2019-01-12T05:42:51.222Z,0.00
2019-01-12T05:43:51.173Z,0.00
2019-01-12T05:44:51.131Z,0.00
2019-01-12T05:45:51.097Z,0.00
2019-01-12T05:46:51.035Z,0.00
2019-01-12T05:47:51.026Z,0.00
2019-01-12T05:48:51.016Z,0.00
2019-01-12T05:49:50.922Z,0.00
2019-01-12T05:50:50.878Z,0.00
2019-01-12T05:51:50.807Z,0.00
2019-01-12T05:52:50.781Z,0.00
2019-01-12T05:53:50.742Z,0.00
2019-01-12T05:54:50.687Z,0.00
2019-01-12T05:55:57.044Z,0.00
2019-01-12T05:56:50.639Z,0.00
2019-01-12T05:57:50.556Z,0.00
2019-01-12T05:58:50.609Z,0.00
2019-01-12T05:59:50.514Z,0.00
2019-01-12T06:00:50.444Z,0.00
2019-01-12T06:01:50.408Z,0.00
2019-01-12T06:02:50.320Z,0.00
2019-01-12T06:03:50.273Z,0.00
2019-01-12T06:04:50.235Z,0.00
2019-01-12T06:05:50.213Z,0.00
2019-01-12T06:06:50.160Z,0.00
2019-01-12T06:07:50.090Z,0.00
2019-01-12T06:08:50.050Z,0.00
2019-01-12T06:09:49.998Z,0.00
2019-01-12T06:10:50.016Z,0.00
2019-01-12T06:11:49.916Z,0.00
2019-01-12T06:12:49.877Z,0.00
2019-01-12T06:13:49.834Z,0.00
2019-01-12T06:14:49.765Z,0.00
2019-01-12T06:15:49.733Z,0.00
2019-01-12T06:16:49.682Z,0.00
2019-01-12T06:17:49.663Z,0.00
2019-01-12T06:18:49.587Z,0.00
2019-01-12T06:19:49.548Z,0.00
2019-01-12T06:20:49.499Z,0.00
2019-01-12T06:21:49.515Z,0.00
2019-01-12T06:22:49.424Z,0.00
2019-01-12T06:23:49.429Z,0.00
2019-01-12T06:24:49.345Z,0.00
2019-01-12T06:25:49.315Z,0.00
2019-01-12T06:26:49.227Z,0.00
2019-01-12T06:27:49.198Z,0.00
2019-01-12T06:28:49.140Z,0.00
2019-01-12T06:29:49.121Z,0.00
2019-01-12T06:30:49.044Z,0.00
2019-01-12T06:31:49.007Z,0.00
2019-01-12T06:32:48.961Z,0.00
2019-01-12T06:33:48.919Z,0.00
2019-01-12T06:34:48.906Z,0.00
2019-01-12T06:35:48.846Z,0.00
2019-01-12T06:36:48.793Z,0.00
2019-01-12T06:37:48.764Z,0.00
2019-01-12T06:38:48.708Z,0.00
2019-01-12T06:39:48.783Z,4.00
2019-01-12T06:40:48.610Z,4.00
2019-01-12T06:41:48.603Z,4.00
2019-01-12T06:42:48.530Z,4.00
2019-01-12T06:43:48.474Z,4.00
2019-01-12T06:44:48.438Z,8.00
2019-01-12T06:45:48.390Z,8.00
2019-01-12T06:46:48.350Z,12.00
2019-01-12T06:47:48.294Z,8.00
2019-01-12T06:48:48.240Z,12.00
2019-01-12T06:49:48.204Z,12.00
2019-01-12T06:50:48.179Z,16.00
2019-01-12T06:51:48.097Z,16.00
2019-01-12T06:52:48.071Z,24.00
2019-01-12T06:53:48.008Z,28.00
2019-01-12T06:54:47.981Z,32.00
2019-01-12T06:55:48.016Z,36.00
2019-01-12T06:56:47.872Z,40.00
2019-01-12T06:57:47.849Z,44.00
2019-01-12T06:58:47.809Z,56.00
2019-01-12T06:59:47.733Z,68.00
2019-01-12T07:00:47.699Z,84.00
2019-01-12T07:01:47.652Z,100.00
2019-01-12T07:02:47.626Z,120.00
2019-01-12T07:03:47.562Z,140.00
2019-01-12T07:04:47.521Z,160.00
2019-01-12T07:05:48.324Z,196.00
2019-01-12T07:06:47.491Z,224.00
2019-01-12T07:07:47.374Z,240.00
2019-01-12T07:08:47.341Z,264.00
2019-01-12T07:09:47.292Z,280.00
2019-01-12T07:10:47.232Z,296.00
2019-01-12T07:11:47.203Z,320.00
2019-01-12T07:12:47.153Z,336.00
2019-01-12T07:13:47.143Z,352.00
2019-01-12T07:14:47.093Z,352.00
2019-01-12T07:15:47.017Z,384.00
2019-01-12T07:16:46.995Z,432.00
2019-01-12T07:17:46.928Z,460.00
2019-01-12T07:18:46.866Z,508.00
2019-01-12T07:19:46.825Z,556.00
2019-01-12T07:20:46.827Z,592.00
2019-01-12T07:21:46.748Z,632.00
2019-01-12T07:22:46.698Z,676.00
2019-01-12T07:23:46.663Z,708.00
2019-01-12T07:24:46.606Z,736.00
2019-01-12T07:25:46.567Z,788.00
2019-01-12T07:26:46.517Z,840.00
2019-01-12T07:27:46.471Z,884.00
2019-01-12T07:28:46.434Z,948.00
2019-01-12T07:29:46.383Z,1008.00
2019-01-12T07:30:46.327Z,1056.00
2019-01-12T07:31:46.304Z,1076.00
2019-01-12T07:32:46.244Z,1072.00
2019-01-12T07:33:46.218Z,1048.00
2019-01-12T07:34:46.164Z,1036.00
2019-01-12T07:35:46.113Z,1028.00
2019-01-12T07:36:46.067Z,996.00
2019-01-12T07:37:46.043Z,1076.00
2019-01-12T07:38:45.970Z,1188.00
2019-01-12T07:39:45.926Z,1300.00
2019-01-12T07:40:45.878Z,1340.00
2019-01-12T07:41:45.887Z,1416.00
2019-01-12T07:42:45.798Z,1492.00
2019-01-12T07:43:45.756Z,1552.00
2019-01-12T07:44:45.696Z,1672.00
2019-01-12T07:45:45.732Z,1796.00
2019-01-12T07:46:45.732Z,1796.00
2019-01-12T07:47:45.569Z,1848.00
2019-01-12T07:48:45.521Z,1904.00
2019-01-12T07:49:45.477Z,1892.00
2019-01-12T07:50:45.493Z,1844.00
2019-01-12T07:51:45.455Z,1872.00
2019-01-12T07:52:45.422Z,1836.00
2019-01-12T07:53:45.386Z,1816.00
2019-01-12T07:54:45.322Z,1836.00
2019-01-12T07:55:45.214Z,1968.00
2019-01-12T07:56:45.212Z,2116.00
2019-01-12T07:57:45.118Z,2120.00
2019-01-12T07:58:45.067Z,2216.00
2019-01-12T07:59:45.120Z,2448.00
2019-01-12T08:00:44.990Z,2608.00
2019-01-12T08:01:44.990Z,2512.00
2019-01-12T08:02:44.952Z,2600.00
2019-01-12T08:03:44.861Z,2676.00
2019-01-12T08:04:44.813Z,2952.00
2019-01-12T08:05:44.753Z,3200.00
2019-01-12T08:06:44.785Z,3536.00
2019-01-12T08:07:44.942Z,4092.00
2019-01-12T08:08:44.676Z,4596.00
2019-01-12T08:09:44.566Z,4440.00
2019-01-12T08:10:44.656Z,4520.00
2019-01-12T08:11:44.491Z,4488.00
2019-01-12T08:12:44.458Z,4660.00
2019-01-12T08:13:44.381Z,4852.00
2019-01-12T08:14:44.401Z,5168.00
2019-01-12T08:15:44.349Z,5480.00
2019-01-12T08:16:44.275Z,5620.00
2019-01-12T08:17:44.208Z,5732.00
2019-01-12T08:18:44.182Z,5456.00
2019-01-12T08:19:44.115Z,5364.00
2019-01-12T08:20:44.095Z,5532.00
2019-01-12T08:21:46.419Z,5680.00
2019-01-12T08:22:44.024Z,5800.00
2019-01-12T08:23:43.989Z,5904.00
2019-01-12T08:24:43.947Z,5916.00
2019-01-12T08:25:43.886Z,5992.00
2019-01-12T08:26:43.848Z,6064.00
2019-01-12T08:27:43.845Z,6200.00
2019-01-12T08:28:43.724Z,6212.00
2019-01-12T08:29:43.686Z,6768.00
2019-01-12T08:30:43.637Z,7156.00
2019-01-12T08:31:43.582Z,7392.00
2019-01-12T08:32:43.565Z,7280.00
2019-01-12T08:33:43.519Z,7392.00
2019-01-12T08:34:43.440Z,7480.00
2019-01-12T08:35:43.398Z,7344.00
2019-01-12T08:36:43.359Z,7228.00
2019-01-12T08:37:43.355Z,7064.00
2019-01-12T08:38:43.629Z,7312.00
2019-01-12T08:39:43.221Z,8568.00
2019-01-12T08:40:43.200Z,10280.00
2019-01-12T08:41:43.179Z,10444.00
2019-01-12T08:42:43.113Z,10228.00
2019-01-12T08:43:43.067Z,9356.00
2019-01-12T08:44:43.032Z,8704.00
2019-01-12T08:45:42.978Z,9200.00
2019-01-12T08:46:42.925Z,10104.00
2019-01-12T08:47:42.909Z,10532.00
2019-01-12T08:48:42.836Z,9896.00
2019-01-12T08:49:42.783Z,9272.00
2019-01-12T08:50:42.739Z,8900.00
2019-01-12T08:51:42.704Z,8880.00
2019-01-12T08:52:42.679Z,9016.00
2019-01-12T08:53:42.614Z,9276.00
2019-01-12T08:54:42.561Z,9496.00
2019-01-12T08:55:42.544Z,9552.00
2019-01-12T08:56:42.487Z,9508.00
2019-01-12T08:57:42.445Z,9956.00
2019-01-12T08:58:42.408Z,10316.00
2019-01-12T08:59:42.354Z,10628.00
2019-01-12T09:00:42.316Z,10200.00
2019-01-12T09:01:42.275Z,9312.00
2019-01-12T09:02:42.263Z,9820.00
2019-01-12T09:03:42.182Z,9940.00
2019-01-12T09:04:43.540Z,10656.00
2019-01-12T09:05:42.101Z,11088.00
2019-01-12T09:06:42.069Z,11788.00
2019-01-12T09:07:42.011Z,12744.00
2019-01-12T09:08:41.959Z,13248.00
2019-01-12T09:09:41.948Z,12888.00
2019-01-12T09:10:41.894Z,13296.00
2019-01-12T09:11:41.858Z,13944.00
2019-01-12T09:12:41.798Z,14832.00
2019-01-12T09:13:41.744Z,13264.00
2019-01-12T09:14:41.707Z,11708.00
2019-01-12T09:15:41.733Z,10792.00
2019-01-12T09:16:41.630Z,10608.00
2019-01-12T09:17:41.585Z,10088.00
2019-01-12T09:18:41.543Z,10060.00
2019-01-12T09:19:41.492Z,11060.00
2019-01-12T09:20:41.452Z,12000.00
2019-01-12T09:21:41.423Z,11216.00
2019-01-12T09:22:41.354Z,10928.00
2019-01-12T09:23:41.363Z,11228.00
2019-01-12T09:24:41.273Z,11688.00
2019-01-12T09:25:41.300Z,11912.00
2019-01-12T09:26:44.872Z,10876.00
2019-01-12T09:27:41.231Z,10992.00
2019-01-12T09:28:41.091Z,10336.00
2019-01-12T09:29:41.848Z,10508.00
2019-01-12T09:30:41.017Z,11732.00
2019-01-12T09:31:40.973Z,13096.00
2019-01-12T09:32:40.921Z,12924.00
2019-01-12T09:33:40.910Z,12284.00
2019-01-12T09:34:40.857Z,11948.00
2019-01-12T09:35:40.806Z,12488.00
2019-01-12T09:36:40.758Z,12364.00
2019-01-12T09:37:40.729Z,12700.00
2019-01-12T09:38:40.667Z,13700.00
2019-01-12T09:39:40.637Z,14924.00
2019-01-12T09:40:40.592Z,15148.00
2019-01-12T09:41:40.588Z,15212.00
2019-01-12T09:42:40.517Z,17012.00
2019-01-12T09:43:40.448Z,18560.00
2019-01-12T09:44:40.446Z,18176.00
2019-01-12T09:45:40.382Z,17856.00
2019-01-12T09:46:40.334Z,17920.00
2019-01-12T09:47:40.292Z,17696.00
2019-01-12T09:48:40.299Z,17176.00
2019-01-12T09:49:40.327Z,17080.00
2019-01-12T09:50:40.174Z,16856.00
2019-01-12T09:51:40.164Z,16624.00
2019-01-12T09:52:40.130Z,16368.00
2019-01-12T09:53:40.080Z,16052.00
2019-01-12T09:54:40.224Z,15764.00
2019-01-12T09:55:40.855Z,15424.00
2019-01-12T09:56:40.872Z,15172.00
2019-01-12T09:57:39.949Z,15004.00
2019-01-12T09:58:40.680Z,14676.00
2019-01-12T09:59:40.425Z,14044.00
2019-01-12T10:00:40.296Z,13380.00
2019-01-12T10:01:39.930Z,12804.00
2019-01-12T10:02:39.824Z,12304.00
2019-01-12T10:03:40.346Z,12676.00
2019-01-12T10:04:39.740Z,13856.00
2019-01-12T10:05:39.959Z,15120.00
2019-01-12T10:06:39.724Z,15916.00
2019-01-12T10:07:40.351Z,16472.00
2019-01-12T10:08:40.361Z,16824.00
2019-01-12T10:09:39.573Z,16816.00
2019-01-12T10:10:39.381Z,15892.00
2019-01-12T10:11:39.378Z,14868.00
2019-01-12T10:12:39.367Z,14652.00
2019-01-12T10:13:39.341Z,15276.00
2019-01-12T10:14:39.315Z,14772.00
2019-01-12T10:15:39.147Z,14396.00
2019-01-12T10:16:39.072Z,15072.00
2019-01-12T10:17:39.062Z,16036.00
2019-01-12T10:18:39.144Z,16924.00
2019-01-12T10:19:39.172Z,17024.00
2019-01-12T10:20:38.907Z,16780.00
2019-01-12T10:21:38.913Z,17128.00
2019-01-12T10:22:38.885Z,17632.00
2019-01-12T10:23:38.790Z,16908.00
2019-01-12T10:24:38.741Z,17696.00
2019-01-12T10:25:38.747Z,17600.00
2019-01-12T10:26:38.835Z,16568.00
2019-01-12T10:27:38.646Z,16532.00
2019-01-12T10:28:39.358Z,15764.00
2019-01-12T10:29:38.568Z,14564.00
2019-01-12T10:30:38.532Z,13760.00
2019-01-12T10:31:38.445Z,12748.00
2019-01-12T10:32:38.408Z,11188.00
2019-01-12T10:33:38.388Z,9620.00
2019-01-12T10:34:38.330Z,8356.00
2019-01-12T10:35:38.284Z,7884.00
2019-01-12T10:36:38.243Z,9636.00
2019-01-12T10:37:38.194Z,12068.00
2019-01-12T10:38:38.145Z,11912.00
2019-01-12T10:39:38.108Z,9264.00
2019-01-12T10:40:38.078Z,8328.00
2019-01-12T10:41:38.023Z,10768.00
2019-01-12T10:42:37.986Z,11812.00
2019-01-12T10:43:38.857Z,11112.00
2019-01-12T10:44:37.912Z,10544.00
2019-01-12T10:45:37.892Z,10380.00
2019-01-12T10:46:37.821Z,10404.00
2019-01-12T10:47:37.779Z,11572.00
2019-01-12T10:48:37.753Z,14644.00
2019-01-12T10:49:37.726Z,15700.00
2019-01-12T10:50:37.700Z,15144.00
2019-01-12T10:51:37.608Z,13408.00
2019-01-12T10:52:37.598Z,12196.00
2019-01-12T10:53:37.516Z,10724.00
2019-01-12T10:54:37.473Z,8972.00
2019-01-12T10:55:37.427Z,9048.00
2019-01-12T10:56:37.429Z,9436.00
2019-01-12T10:57:37.361Z,10752.00
2019-01-12T10:58:37.315Z,11940.00
2019-01-12T10:59:37.283Z,11184.00
2019-01-12T11:00:37.251Z,10532.00
2019-01-12T11:01:37.191Z,9664.00
2019-01-12T11:02:37.147Z,9576.00
2019-01-12T11:03:37.249Z,9628.00
2019-01-12T11:04:37.078Z,9108.00
2019-01-12T11:05:37.108Z,8600.00
2019-01-12T11:06:37.169Z,8512.00
2019-01-12T11:07:36.927Z,8688.00
2019-01-12T11:08:36.890Z,9408.00
2019-01-12T11:09:36.847Z,9048.00
2019-01-12T11:10:36.825Z,8740.00
2019-01-12T11:11:36.831Z,9232.00
2019-01-12T11:12:36.737Z,10304.00
2019-01-12T11:13:36.676Z,11512.00
2019-01-12T11:14:36.641Z,10124.00
2019-01-12T11:15:36.588Z,9292.00
2019-01-12T11:16:36.574Z,9632.00
2019-01-12T11:17:36.501Z,9552.00
2019-01-12T11:18:36.530Z,9548.00
2019-01-12T11:19:36.420Z,9140.00
2019-01-12T11:20:36.380Z,9020.00
2019-01-12T11:21:36.377Z,12096.00
2019-01-12T11:22:36.294Z,14484.00
2019-01-12T11:23:36.255Z,16376.00
2019-01-12T11:24:36.269Z,17144.00
2019-01-12T11:25:42.556Z,17080.00
2019-01-12T11:26:36.114Z,17356.00
2019-01-12T11:27:36.079Z,18752.00
2019-01-12T11:28:36.054Z,19200.00
2019-01-12T11:29:35.994Z,17000.00
2019-01-12T11:30:35.972Z,13272.00
2019-01-12T11:31:35.923Z,12600.00
2019-01-12T11:32:35.860Z,13992.00
2019-01-12T11:33:35.830Z,12804.00
2019-01-12T11:34:35.784Z,11496.00
2019-01-12T11:35:35.783Z,10832.00
2019-01-12T11:36:35.721Z,10272.00
2019-01-12T11:37:35.642Z,8796.00
2019-01-12T11:38:35.613Z,8744.00
2019-01-12T11:39:35.593Z,12616.00
2019-01-12T11:40:35.572Z,14000.00
2019-01-12T11:41:35.487Z,15612.00
2019-01-12T11:42:35.457Z,15312.00
2019-01-12T11:43:35.413Z,15200.00
2019-01-12T11:44:35.885Z,14680.00
2019-01-12T11:45:35.316Z,14884.00
2019-01-12T11:46:35.287Z,15320.00
2019-01-12T11:47:35.238Z,14752.00
2019-01-12T11:48:35.198Z,16080.00
2019-01-12T11:49:35.134Z,18656.00
2019-01-12T11:50:35.103Z,22528.00
2019-01-12T11:51:35.047Z,21504.00
2019-01-12T11:52:35.014Z,19136.00
2019-01-12T11:53:35.000Z,18176.00
2019-01-12T11:54:34.930Z,16664.00
2019-01-12T11:55:34.894Z,14992.00
2019-01-12T11:56:34.841Z,13420.00
2019-01-12T11:57:34.819Z,12492.00
2019-01-12T11:58:34.763Z,12260.00
2019-01-12T11:59:34.726Z,11724.00
2019-01-12T12:00:34.700Z,10500.00
2019-01-12T12:01:34.709Z,9764.00
2019-01-12T12:02:37.860Z,9452.00
2019-01-12T12:03:34.540Z,9588.00
2019-01-12T12:04:34.504Z,9616.00
2019-01-12T12:05:34.479Z,9756.00
2019-01-12T12:06:34.442Z,9576.00
2019-01-12T12:07:34.572Z,9812.00
2019-01-12T12:08:34.343Z,9776.00
2019-01-12T12:09:34.292Z,9488.00
2019-01-12T12:10:34.259Z,9172.00
2019-01-12T12:11:34.217Z,8740.00
2019-01-12T12:12:34.165Z,8628.00
2019-01-12T12:13:34.119Z,8660.00
2019-01-12T12:14:34.132Z,8464.00
2019-01-12T12:15:34.035Z,8376.00
2019-01-12T12:16:34.022Z,8076.00
2019-01-12T12:17:33.964Z,7720.00
2019-01-12T12:18:33.963Z,7552.00
2019-01-12T12:19:33.898Z,7732.00
2019-01-12T12:20:33.853Z,8364.00
2019-01-12T12:21:33.797Z,9692.00
2019-01-12T12:22:33.736Z,10740.00
2019-01-12T12:23:33.701Z,10700.00
2019-01-12T12:24:33.660Z,9548.00
2019-01-12T12:25:33.609Z,9400.00
2019-01-12T12:26:33.577Z,11092.00
2019-01-12T12:27:33.540Z,11516.00
2019-01-12T12:28:33.520Z,11480.00
2019-01-12T12:29:33.466Z,12864.00
2019-01-12T12:30:33.409Z,14044.00
2019-01-12T12:31:33.368Z,13612.00
2019-01-12T12:32:33.334Z,12156.00
2019-01-12T12:33:33.290Z,12140.00
2019-01-12T12:34:33.240Z,12532.00
2019-01-12T12:35:37.672Z,13092.00
2019-01-12T12:36:33.160Z,14384.00
2019-01-12T12:37:33.115Z,15076.00
2019-01-12T12:38:33.075Z,14644.00
2019-01-12T12:39:33.031Z,13836.00
2019-01-12T12:40:32.982Z,13240.00
2019-01-12T12:41:32.937Z,13868.00
2019-01-12T12:42:32.895Z,15760.00
2019-01-12T12:43:32.854Z,17664.00
2019-01-12T12:44:32.815Z,17472.00
2019-01-12T12:45:32.773Z,15644.00
2019-01-12T12:46:32.750Z,14672.00
2019-01-12T12:47:32.697Z,13084.00
2019-01-12T12:48:32.652Z,11156.00
2019-01-12T12:49:32.606Z,9992.00
2019-01-12T12:50:32.559Z,9208.00